Latest Coastal Weather Observations for Kiama

IDN60701

Issued at 2:11 pm EDT Tuesday 31 March 2015 (issued every 10 minutes, with the page automatically refreshed every 10 minutes)

About coastal observations | Map of coastal stations | Coastal observations for NSW | Marine services | Other Formats
Station Details ID: 068242 Name: KIAMA (BOMBO HEADLAND) Lat: -34.65 Lon: 150.86 Height: 15.5 m
Data from the previous 72 hours. | See also: Recent months at Kiama
Date/Time
EDT
Temp

°C
Wind Pressure Rain
since 9am
mm
Weather Cloud Vis
km
Sea
Height
m
Swell
Dir
 
Speed
knots
Gust
knots
hPa Trend Height
m
Period
s
Dir
31/02:00pm 22.0 S 9 15 - - 0.0 - - - - - - -
31/01:30pm 22.0 S 11 14 - - 0.0 - - - - - - -
31/01:00pm 22.0 S 12 15 - - 0.0 - - - - - - -
31/12:30pm 22.1 S 11 15 - - 0.0 - - - - - - -
31/12:00pm 22.2 S 10 13 - - 0.0 - - - - - - -
31/11:30am 21.9 SSW 11 14 - - 0.0 - - - - - - -
31/11:00am 21.0 SSW 12 15 - - 0.0 - - - - - - -
31/10:30am 21.2 SSW 10 13 - - 0.0 - - - - - - -
31/10:00am 20.8 SSW 9 13 - - 0.0 - - - - - - -
31/09:30am 19.8 SSW 7 9 - - 0.0 - - - - - - -
31/09:00am 20.0 SSW 9 12 - - 0.0 - - - - - - -
31/08:30am 19.4 SSW 7 10 - - 0.0 - - - - - - -
31/08:00am 19.0 SSW 9 13 - - 0.0 - - - - - - -
31/07:30am 18.5 WSW 4 7 - - 0.0 - - - - - - -
31/07:00am 18.9 SW 9 12 - - 0.0 - - - - - - -
31/06:30am 18.3 SSW 7 9 - - 0.0 - - - - - - -
31/06:00am 17.9 SW 4 5 - - 0.0 - - - - - - -
31/05:30am 17.7 WSW 5 7 - - 0.0 - - - - - - -
31/05:00am 17.6 WSW 4 5 - - 0.0 - - - - - - -
31/04:30am 17.2 W 4 5 - - 0.0 - - - - - - -
31/04:00am 17.4 W 4 5 - - 0.0 - - - - - - -
31/03:30am 17.0 W 4 5 - - 0.0 - - - - - - -
31/03:00am 18.1 W 3 4 - - 0.0 - - - - - - -
31/02:30am 17.3 W 5 6 - - 0.0 - - - - - - -
31/02:00am 17.7 WSW 3 4 - - 0.0 - - - - - - -
31/01:30am 18.7 WSW 2 4 - - 0.0 - - - - - - -
31/01:00am 19.4 SSW 3 7 - - 0.0 - - - - - - -
31/12:30am 18.4 CALM 0 0 - - 0.0 - - - - - - -
31/12:00am 18.1 CALM 0 0 - - 0.0 - - - - - - -
 
Date/Time
EDT
Temp

°C
Wind Pressure Rain
since 9am
mm
Weather Cloud Vis
km
Sea
Height
m
Swell
Dir
 
Speed
knots
Gust
knots
hPa Trend Height
m
Period
s
Dir
30/11:30pm 18.3 CALM 0 0 - - 0.0 - - - - - - -
30/11:00pm 18.7 WSW 3 3 - - 0.0 - - - - - - -
30/10:30pm 18.8 CALM 0 0 - - 0.0 - - - - - - -
30/10:00pm 18.9 NNW 1 2 - - 0.0 - - - - - - -
30/09:30pm 19.4 NW 2 3 - - 0.0 - - - - - - -
30/09:00pm 19.1 W 2 3 - - 0.0 - - - - - - -
30/08:30pm 19.3 W 3 5 - - 0.0 - - - - - - -
30/08:00pm 19.5 WNW 3 4 - - 0.0 - - - - - - -
30/07:30pm 19.7 CALM 0 0 - - 0.0 - - - - - - -
30/07:00pm 19.9 CALM 0 0 - - 0.0 - - - - - - -
30/06:30pm 20.5 CALM 0 0 - - 0.0 - - - - - - -
30/06:00pm 20.8 SE 2 3 - - 0.0 - - - - - - -
30/05:30pm 21.2 SE 2 4 - - 0.0 - - - - - - -
30/05:00pm 20.9 SSE 3 4 - - 0.0 - - - - - - -
30/04:30pm 20.7 SSE 3 5 - - 0.0 - - - - - - -
30/04:00pm 20.8 S 5 7 - - 0.0 - - - - - - -
30/03:30pm 20.8 S 6 8 - - 0.0 - - - - - - -
30/03:00pm 21.1 SSE 4 6 - - 0.0 - - - - - - -
30/02:30pm 21.5 SE 5 7 - - 0.0 - - - - - - -
30/02:00pm 22.1 E 3 4 - - 0.0 - - - - - - -
30/01:30pm 21.5 CALM 0 0 - - 0.0 - - - - - - -
30/01:00pm 21.1 SSE 4 6 - - 0.0 - - - - - - -
30/12:30pm 20.6 S 3 5 - - 0.0 - - - - - - -
30/12:00pm 20.3 S 7 9 - - 0.0 - - - - - - -
30/11:30am 20.1 S 9 13 - - 0.0 - - - - - - -
30/11:00am 20.2 S 11 14 - - 0.0 - - - - - - -
30/10:30am 20.2 S 8 10 - - 0.0 - - - - - - -
30/10:00am 20.6 CALM 0 0 - - 0.0 - - - - - - -
30/09:30am 20.3 S 1 3 - - 0.0 - - - - - - -
30/09:00am 19.7 CALM 0 0 - - 0.0 - - - - - - -
30/08:30am 19.3 CALM 0 0 - - 0.0 - - - - - - -
30/08:00am 18.7 CALM 0 0 - - 0.0 - - - - - - -
30/07:30am 18.5 CALM 0 0 - - 0.0 - - - - - - -
30/07:00am 18.2 SW 1 3 - - 0.0 - - - - - - -
30/06:30am 17.7 CALM 0 2 - - 0.0 - - - - - - -
30/06:00am 17.5 CALM 0 0 - - 0.0 - - - - - - -
30/05:30am 17.6 CALM 0 0 - - 0.0 - - - - - - -
30/05:00am 17.8 CALM 0 2 - - 0.0 - - - - - - -
30/04:30am 18.1 CALM 0 0 - - 0.0 - - - - - - -
30/04:00am 17.9 CALM 0 0 - - 0.0 - - - - - - -
30/03:30am 18.0 SW 3 5 - - 0.0 - - - - - - -
30/03:00am 17.6 W 5 6 - - 0.0 - - - - - - -
30/02:30am 17.6 W 5 6 - - 0.0 - - - - - - -
30/02:00am 18.1 W 5 7 - - 0.0 - - - - - - -
30/01:30am 18.3 W 5 7 - - 0.0 - - - - - - -
30/01:00am 18.4 WNW 6 8 - - 0.0 - - - - - - -
30/12:30am 18.4 WNW 6 7 - - 0.0 - - - - - - -
30/12:00am 18.2 WNW 5 6 - - 0.0 - - - - - - -
 
Date/Time
EDT
Temp

°C
Wind Pressure Rain
since 9am
mm
Weather Cloud Vis
km
Sea
Height
m
Swell
Dir
 
Speed
knots
Gust
knots
hPa Trend Height
m
Period
s
Dir
29/11:30pm 18.2 WNW 5 7 - - 0.0 - - - - - - -
29/11:00pm 18.1 W 1 3 - - 0.0 - - - - - - -
29/10:30pm 18.7 CALM 0 3 - - 0.0 - - - - - - -
29/10:00pm 18.9 WNW 2 4 - - 0.0 - - - - - - -
29/09:30pm 19.4 NW 3 5 - - 0.0 - - - - - - -
29/09:00pm 20.0 NW 3 5 - - 0.0 - - - - - - -
29/08:30pm 20.3 NNW 3 6 - - 0.0 - - - - - - -
29/08:00pm 20.8 NNW 4 5 - - 0.0 - - - - - - -
29/07:30pm 21.6 N 10 14 - - 0.0 - - - - - - -
29/07:00pm 21.5 NNE 9 13 - - 0.0 - - - - - - -
29/06:30pm 21.6 NNE 8 11 - - 0.0 - - - - - - -
29/06:00pm 21.6 NNE 9 14 - - 0.0 - - - - - - -
29/05:30pm 21.8 NNE 9 12 - - 0.0 - - - - - - -
29/05:00pm 22.1 NNE 8 12 - - 0.0 - - - - - - -
29/04:30pm 22.4 NNE 8 11 - - 0.0 - - - - - - -
29/04:00pm 22.4 NNE 11 15 - - 0.0 - - - - - - -
29/03:30pm 22.9 NE 11 15 - - 0.0 - - - - - - -
29/03:00pm 22.8 NNE 12 15 - - 0.0 - - - - - - -
29/02:30pm 22.3 NNE 11 17 - - 0.0 - - - - - - -
29/02:00pm 22.5 NNE 11 17 - - 0.0 - - - - - - -
29/01:30pm 23.5 NNE 12 16 - - 0.0 - - - - - - -
29/01:00pm 23.6 NNE 10 15 - - 0.0 - - - - - - -
29/12:30pm 23.3 NE 11 15 - - 0.0 - - - - - - -
29/12:00pm 23.3 NNE 9 12 - - 0.0 - - - - - - -
29/11:30am 22.5 N 8 14 - - 0.0 - - - - - - -
29/11:00am 21.8 N 11 15 - - 0.0 - - - - - - -
29/10:30am 21.2 N 11 17 - - 0.0 - - - - - - -
29/10:00am 20.7 N 7 11 - - 0.0 - - - - - - -
29/09:30am 20.0 NNW 6 9 - - 0.0 - - - - - - -
29/09:00am 18.7 NNW 4 7 - - 0.0 - - - - - - -
29/08:30am 16.9 NW 4 5 - - 0.0 - - - - - - -
29/08:00am 16.3 WNW 6 8 - - 0.0 - - - - - - -
29/07:30am 16.3 WNW 7 9 - - 0.0 - - - - - - -
29/07:00am 16.1 WNW 7 9 - - 0.0 - - - - - - -
29/06:30am 16.0 WNW 7 9 - - 0.0 - - - - - - -
29/06:00am 15.7 NW 7 8 - - 0.0 - - - - - - -
29/05:30am 15.8 WNW 7 8 - - 0.0 - - - - - - -
29/05:00am 15.8 NW 7 8 - - 0.0 - - - - - - -
29/04:30am 15.4 WNW 5 7 - - 0.0 - - - - - - -
29/04:00am 15.3 WNW 6 7 - - 0.0 - - - - - - -
29/03:30am 15.3 WNW 6 7 - - 0.0 - - - - - - -
29/03:00am 15.3 WNW 5 6 - - 0.0 - - - - - - -
29/02:30am 15.0 W 5 6 - - 0.0 - - - - - - -
29/02:00am 15.1 WNW 6 7 - - 0.0 - - - - - - -
29/01:30am 15.1 W 7 7 - - 0.0 - - - - - - -
29/01:00am 15.8 W 5 6 - - 0.0 - - - - - - -
29/12:30am 15.5 W 4 5 - - 0.0 - - - - - - -
29/12:00am 16.0 W 5 6 - - 0.0 - - - - - - -
 
Date/Time
EDT
Temp

°C
Wind Pressure Rain
since 9am
mm
Weather Cloud Vis
km
Sea
Height
m
Swell
Dir
 
Speed
knots
Gust
knots
hPa Trend Height
m
Period
s
Dir
28/11:30pm 15.9 W 5 6 - - 0.0 - - - - - - -
28/11:00pm 15.6 W 6 8 - - 0.0 - - - - - - -
28/10:30pm 15.9 W 6 7 - - 0.0 - - - - - - -
28/10:00pm 15.8 W 6 7 - - 0.0 - - - - - - -
28/09:30pm 16.1 W 6 7 - - 0.0 - - - - - - -
28/09:00pm 16.1 W 5 6 - - 0.0 - - - - - - -
28/08:30pm 16.6 WSW 2 3 - - 0.0 - - - - - - -
28/08:00pm 17.9 WSW 1 4 - - 0.0 - - - - - - -
28/07:30pm 18.7 SE 4 6 - - 0.0 - - - - - - -
28/07:00pm 19.0 SSE 5 8 - - 0.0 - - - - - - -
28/06:30pm 19.3 SSE 7 10 - - 0.0 - - - - - - -
28/06:00pm 19.5 SSE 8 12 - - 0.0 - - - - - - -
28/05:30pm 19.9 SSE 9 11 - - 0.0 - - - - - - -
28/05:00pm 20.2 SSE 7 9 - - 0.0 - - - - - - -
28/04:30pm 20.6 SSE 7 10 - - 0.0 - - - - - - -
28/04:00pm 20.4 SSE 8 11 - - 0.0 - - - - - - -
28/03:30pm 21.1 SE 8 10 - - 0.0 - - - - - - -
28/03:00pm 20.9 SE 8 10 - - 0.0 - - - - - - -
28/02:30pm 21.0 SE 9 11 - - 0.0 - - - - - - -

Other Formats:

Comma delimited format used in spreadsheet applications
http://www.bom.gov.au/fwo/IDN60701/IDN60701.95749.axf

JavaScript Object Notation format (JSON) in row-major order
http://www.bom.gov.au/fwo/IDN60701/IDN60701.95749.json